Avon Lake, Iowa
Current Conditions -  °F | °C
As of 7:15 PM on Sunday 23 Nov 2014 (Local Time) from KDSM Reporting Station
Drizzle Drizzle  
Wind Chill: 34°   Ceiling: 1000
Heat Index: 43°   Visibility: 10mi
Dew Point: 39°   Wind: 24mph
Humidity: 86%   Direction: 340°NNW
Pressure: 29.38"   Gusts: 36mph
Location:  41.4707°N, 93.4797°W
Report Text: KDSM 240115Z 34021G31KT 10SM -DZ OVC010 06/04 A2938 RMK AO2 PK WND 33031/0109 RAE14DZB14 P0000 T00610039
Loading
Personal Weather Stations






























Interactive Weather Map New forecast layout! Learn more

10-Day Weather Forecast

Advertisements
Track Severe Weather on mobile